Time;durP1;ratioP1;P1;durP2;ratioP2;P2;SDS_P1;SDS_P2;PMS_P1;PMS_P2;Temp;Humidity;BMP_temperature;BMP_pressure;BME280_temperature;BME280_humidity;BME280_pressure;Samples;Min_cycle;Max_cycle;Signal;HPM_P1;HPM_P2
2022/05/14 00:01:16;;;;;;;;;;;;;;;;;;4875086;28;134113;-64
2022/05/14 00:03:43;;;;;;;;;;;;;;;;;;4869230;28;122398;-64
2022/05/14 00:06:09;;;;;;;;;;;;;;;;;;4871176;28;135760;-64
2022/05/14 00:08:35;;;;;;;;;;;;;;;;;;4869632;28;135829;-64
2022/05/14 00:13:47;;;;;;;;;;;;;;;;;;4869056;28;136692;-64
2022/05/14 00:16:13;;;;;;;;;;;;;;;;;;4868436;28;137129;-64
2022/05/14 00:18:40;;;;;;;;;;;;;;;;;;4872281;28;105938;-65
2022/05/14 00:21:06;;;;;;;;;;;;;;;;;;4871693;28;122031;-64
2022/05/14 00:23:32;;;;;;;;;;;;;;;;;;4874182;28;134167;-64
2022/05/14 00:25:58;;;;;;;;;;;;;;;;;;4872571;28;137834;-64
2022/05/14 00:28:25;;;;;;;;;;;;;;;;;;4870957;28;126939;-64
2022/05/14 00:30:51;;;;;;;;;;;;;;;;;;4873280;28;122074;-64
2022/05/14 00:33:18;;;;;;;;;;;;;;;;;;4871433;28;107464;-66
2022/05/14 00:35:44;;;;;;;;;;;;;;;;;;4866807;28;128002;-64
2022/05/14 00:38:10;;;;;;;;;;;;;;;;;;4872981;28;106009;-64
2022/05/14 00:40:39;;;;;;;;;;;;;;;;;;4871591;28;132218;-64
2022/05/14 00:43:05;;;;;;;;;;;;;;;;;;4871747;28;135715;-64
2022/05/14 00:45:32;;;;;;;;;;;;;;;;;;4874175;28;122390;-64
2022/05/14 00:47:58;;;;;;;;;;;;;;;;;;4870954;28;118842;-64
2022/05/14 00:50:24;;;;;;;;;;;;;;;;;;4869195;28;106046;-64
2022/05/14 00:52:51;;;;;;;;;;;;;;;;;;4871598;28;135067;-65
2022/05/14 00:55:17;;;;;;;;;;;;;;;;;;4872481;28;106427;-64
2022/05/14 00:57:45;;;;;;;;;;;;;;;;;;4871186;28;121546;-64
2022/05/14 01:00:11;;;;;;;;;;;;;;;;;;4871443;28;135657;-64
2022/05/14 01:02:37;;;;;;;;;;;;;;;;;;4870558;28;126269;-64
2022/05/14 01:05:03;;;;;;;;;;;;;;;;;;4940518;22;106924;-64
2022/05/14 01:07:30;;;;;;;;;;;;;;;;;;4933416;28;108078;-64
2022/05/14 01:09:56;;;;;;;;;;;;;;;;;;4944902;28;106503;-63
2022/05/14 01:12:23;;;;;;;;;;;;;;;;;;4929330;28;135421;-63
2022/05/14 01:14:49;;;;;;;;;;;;;;;;;;4929330;28;136869;-65
2022/05/14 01:17:15;;;;;;;;;;;;;;;;;;4930400;28;121736;-66
2022/05/14 01:19:42;;;;;;;;;;;;;;;;;;4928001;28;138630;-64
2022/05/14 01:22:09;;;;;;;;;;;;;;;;;;4925346;28;136833;-64
2022/05/14 01:27:28;;;;;;;;;;;;;;;;;;4924130;28;108217;-64
2022/05/14 01:29:54;;;;;;;;;;;;;;;;;;4957713;28;109114;-64
2022/05/14 01:32:20;;;;;;;;;;;;;;;;;;4930204;28;135347;-66
2022/05/14 01:34:47;;;;;;;;;;;;;;;;;;4929999;28;136488;-64
2022/05/14 01:37:15;;;;;;;;;;;;;;;;;;4929910;28;105973;-63
2022/05/14 01:39:43;;;;;;;;;;;;;;;;;;4941031;28;107854;-65
2022/05/14 01:42:10;;;;;;;;;;;;;;;;;;4928446;28;109182;-66
2022/05/14 01:44:36;;;;;;;;;;;;;;;;;;4926382;28;107518;-66
2022/05/14 01:47:02;;;;;;;;;;;;;;;;;;4928401;28;136053;-66
2022/05/14 01:49:29;;;;;;;;;;;;;;;;;;4945261;28;137231;-66
2022/05/14 01:51:56;;;;;;;;;;;;;;;;;;4928296;28;108650;-66
2022/05/14 01:54:22;;;;;;;;;;;;;;;;;;4954692;28;136624;-66
2022/05/14 01:56:48;;;;;;;;;;;;;;;;;;4927080;28;106320;-66
2022/05/14 01:59:15;;;;;;;;;;;;;;;;;;4931266;28;124767;-65
2022/05/14 02:01:42;;;;;;;;;;;;;;;;;;4927328;28;108602;-66
2022/05/14 02:04:08;;;;;;;;;;;;;;;;;;4922977;28;123047;-66
2022/05/14 02:06:35;;;;;;;;;;;;;;;;;;4950099;28;108142;-65
2022/05/14 02:09:02;;;;;;;;;;;;;;;;;;4928097;28;108549;-65
2022/05/14 02:11:29;;;;;;;;;;;;;;;;;;4932559;28;105690;-65
2022/05/14 02:14:03;;;;;;;;;;;;;;;;;;4943781;28;108615;-65
2022/05/14 02:16:29;;;;;;;;;;;;;;;;;;4923219;28;123051;-64
2022/05/14 02:18:56;;;;;;;;;;;;;;;;;;4924679;28;108799;-65
2022/05/14 02:21:24;;;;;;;;;;;;;;;;;;4952627;28;132863;-66
2022/05/14 02:23:51;;;;;;;;;;;;;;;;;;4947090;28;106114;-65
2022/05/14 02:26:17;;;;;;;;;;;;;;;;;;4947381;28;108731;-64
2022/05/14 02:28:44;;;;;;;;;;;;;;;;;;4953422;28;139678;-65
2022/05/14 02:31:10;;;;;;;;;;;;;;;;;;4935347;28;105938;-66
2022/05/14 02:33:36;;;;;;;;;;;;;;;;;;4930163;28;135923;-65
2022/05/14 02:36:03;;;;;;;;;;;;;;;;;;4936046;28;121978;-64
2022/05/14 02:38:31;;;;;;;;;;;;;;;;;;4924709;28;121306;-65
2022/05/14 02:40:58;;;;;;;;;;;;;;;;;;4933287;28;124707;-64
2022/05/14 02:43:24;;;;;;;;;;;;;;;;;;4924687;28;121980;-64
2022/05/14 02:45:50;;;;;;;;;;;;;;;;;;4929755;28;134146;-64
2022/05/14 02:48:17;;;;;;;;;;;;;;;;;;4915791;28;136281;-64
2022/05/14 02:50:44;;;;;;;;;;;;;;;;;;4904668;28;106813;-64
2022/05/14 02:53:10;;;;;;;;;;;;;;;;;;4922646;28;106272;-65
2022/05/14 02:55:36;;;;;;;;;;;;;;;;;;4933196;28;136990;-64
2022/05/14 02:58:03;;;;;;;;;;;;;;;;;;4943274;28;135318;-64
2022/05/14 03:00:29;;;;;;;;;;;;;;;;;;4943621;28;136930;-65
2022/05/14 03:02:55;;;;;;;;;;;;;;;;;;4929175;28;115168;-64
2022/05/14 03:05:22;;;;;;;;;;;;;;;;;;4923028;28;122949;-65
2022/05/14 03:07:48;;;;;;;;;;;;;;;;;;4923267;28;135863;-64
2022/05/14 03:10:15;;;;;;;;;;;;;;;;;;4933031;28;106053;-64
2022/05/14 03:12:41;;;;;;;;;;;;;;;;;;4925072;28;135847;-65
2022/05/14 03:15:07;;;;;;;;;;;;;;;;;;4929531;28;135608;-65
2022/05/14 03:17:34;;;;;;;;;;;;;;;;;;4936373;28;123733;-66
2022/05/14 03:20:01;;;;;;;;;;;;;;;;;;4935740;28;109265;-64
2022/05/14 03:22:28;;;;;;;;;;;;;;;;;;4920470;28;106265;-64
2022/05/14 03:24:54;;;;;;;;;;;;;;;;;;4928845;28;114664;-64
2022/05/14 03:27:20;;;;;;;;;;;;;;;;;;4931378;28;112534;-64
2022/05/14 03:29:47;;;;;;;;;;;;;;;;;;4933871;28;108577;-64
2022/05/14 03:32:13;;;;;;;;;;;;;;;;;;4937372;28;135819;-64
2022/05/14 03:34:40;;;;;;;;;;;;;;;;;;4928635;28;136407;-64
2022/05/14 03:37:06;;;;;;;;;;;;;;;;;;4930759;28;121830;-64
2022/05/14 03:39:32;;;;;;;;;;;;;;;;;;4935775;28;125835;-64
2022/05/14 03:41:59;;;;;;;;;;;;;;;;;;4932819;28;106612;-64
2022/05/14 03:44:26;;;;;;;;;;;;;;;;;;4928199;28;106124;-64
2022/05/14 03:46:52;;;;;;;;;;;;;;;;;;4926051;28;127885;-64
2022/05/14 03:49:18;;;;;;;;;;;;;;;;;;4930456;28;121937;-64
2022/05/14 03:51:44;;;;;;;;;;;;;;;;;;4920611;28;106091;-65
2022/05/14 03:54:11;;;;;;;;;;;;;;;;;;4929884;28;108438;-64
2022/05/14 03:56:39;;;;;;;;;;;;;;;;;;4931508;28;107005;-64
2022/05/14 03:59:07;;;;;;;;;;;;;;;;;;4935200;28;106980;-64
2022/05/14 04:01:33;;;;;;;;;;;;;;;;;;4927060;28;106066;-64
2022/05/14 04:04:00;;;;;;;;;;;;;;;;;;4930675;28;135374;-65
2022/05/14 04:06:26;;;;;;;;;;;;;;;;;;4927597;28;136715;-64
2022/05/14 04:08:52;;;;;;;;;;;;;;;;;;4933066;28;123596;-65
2022/05/14 04:11:19;;;;;;;;;;;;;;;;;;4935626;28;108353;-64
2022/05/14 04:13:46;;;;;;;;;;;;;;;;;;4925359;28;108934;-65
2022/05/14 04:16:12;;;;;;;;;;;;;;;;;;4942043;28;106531;-65
2022/05/14 04:18:39;;;;;;;;;;;;;;;;;;4929526;28;138028;-66
2022/05/14 04:21:05;;;;;;;;;;;;;;;;;;4930237;28;108156;-64
2022/05/14 04:23:32;;;;;;;;;;;;;;;;;;4946764;28;108277;-64
2022/05/14 04:25:58;;;;;;;;;;;;;;;;;;4920389;28;135739;-63
2022/05/14 04:28:25;;;;;;;;;;;;;;;;;;4931233;28;105901;-67
2022/05/14 04:30:51;;;;;;;;;;;;;;;;;;4928446;28;135037;-63
2022/05/14 04:33:19;;;;;;;;;;;;;;;;;;4929028;28;109234;-63
2022/05/14 04:35:45;;;;;;;;;;;;;;;;;;4929385;28;106164;-63
2022/05/14 04:38:11;;;;;;;;;;;;;;;;;;4933749;28;120432;-64
2022/05/14 04:40:38;;;;;;;;;;;;;;;;;;4942259;28;138398;-63
2022/05/14 04:43:04;;;;;;;;;;;;;;;;;;4964131;28;108515;-65
2022/05/14 04:45:30;;;;;;;;;;;;;;;;;;4920386;28;136721;-64
2022/05/14 04:47:56;;;;;;;;;;;;;;;;;;4945252;28;107407;-65
2022/05/14 04:50:23;;;;;;;;;;;;;;;;;;4939881;28;107778;-64
2022/05/14 04:52:50;;;;;;;;;;;;;;;;;;4957899;28;109219;-64
2022/05/14 04:55:16;;;;;;;;;;;;;;;;;;4944834;28;122093;-64
2022/05/14 04:57:43;;;;;;;;;;;;;;;;;;4939156;28;108114;-65
2022/05/14 05:00:13;;;;;;;;;;;;;;;;;;4927495;28;107427;-64
2022/05/14 05:05:24;;;;;;;;;;;;;;;;;;4951333;28;108198;-64
2022/05/14 05:07:51;;;;;;;;;;;;;;;;;;4941216;28;124465;-64
2022/05/14 05:10:17;;;;;;;;;;;;;;;;;;4945668;28;108421;-64
2022/05/14 05:12:43;;;;;;;;;;;;;;;;;;4929536;28;137856;-64
2022/05/14 05:15:09;;;;;;;;;;;;;;;;;;4919629;28;123121;-64
2022/05/14 05:17:36;;;;;;;;;;;;;;;;;;4925768;28;106917;-64
2022/05/14 05:20:02;;;;;;;;;;;;;;;;;;4929045;28;135667;-65
2022/05/14 05:22:29;;;;;;;;;;;;;;;;;;4920987;28;122750;-65
2022/05/14 05:24:56;;;;;;;;;;;;;;;;;;4924927;28;128683;-64
2022/05/14 05:27:26;;;;;;;;;;;;;;;;;;4964579;28;115790;-65
2022/05/14 05:29:52;;;;;;;;;;;;;;;;;;4924245;28;133815;-64
2022/05/14 05:32:18;;;;;;;;;;;;;;;;;;4924448;28;136712;-64
2022/05/14 05:34:45;;;;;;;;;;;;;;;;;;4928734;28;121289;-64
2022/05/14 05:37:11;;;;;;;;;;;;;;;;;;4927809;28;131402;-64
2022/05/14 05:39:37;;;;;;;;;;;;;;;;;;4923745;28;127287;-64
2022/05/14 05:42:03;;;;;;;;;;;;;;;;;;4925240;28;122282;-64
2022/05/14 05:44:30;;;;;;;;;;;;;;;;;;4925984;28;133662;-64
2022/05/14 05:46:56;;;;;;;;;;;;;;;;;;4929345;28;138090;-64
2022/05/14 05:49:22;;;;;;;;;;;;;;;;;;4931662;28;122065;-69
2022/05/14 05:51:49;;;;;;;;;;;;;;;;;;4931628;28;118883;-67
2022/05/14 05:57:00;;;;;;;;;;;;;;;;;;4919096;28;136573;-66
2022/05/14 05:59:26;;;;;;;;;;;;;;;;;;4925965;28;135795;-67
2022/05/14 06:01:53;;;;;;;;;;;;;;;;;;4923539;28;122011;-66
2022/05/14 06:04:19;;;;;;;;;;;;;;;;;;4919171;28;136647;-66
2022/05/14 06:06:45;;;;;;;;;;;;;;;;;;4918440;28;137509;-67
2022/05/14 06:09:12;;;;;;;;;;;;;;;;;;4932118;28;123103;-67
2022/05/14 06:11:38;;;;;;;;;;;;;;;;;;4921316;28;136953;-67
2022/05/14 06:14:05;;;;;;;;;;;;;;;;;;4922529;28;122027;-67
2022/05/14 06:16:31;;;;;;;;;;;;;;;;;;4913989;28;135921;-66
2022/05/14 06:18:57;;;;;;;;;;;;;;;;;;4924799;28;136960;-67
2022/05/14 06:21:24;;;;;;;;;;;;;;;;;;4920966;28;110878;-67
2022/05/14 06:23:50;;;;;;;;;;;;;;;;;;4921211;28;135823;-66
2022/05/14 06:26:16;;;;;;;;;;;;;;;;;;4928313;28;137367;-67
2022/05/14 06:28:43;;;;;;;;;;;;;;;;;;4925342;28;123362;-67
2022/05/14 06:31:09;;;;;;;;;;;;;;;;;;4931568;28;134866;-67
2022/05/14 06:33:35;;;;;;;;;;;;;;;;;;4928710;28;122062;-69
2022/05/14 06:36:02;;;;;;;;;;;;;;;;;;4932590;28;135344;-65
2022/05/14 06:38:28;;;;;;;;;;;;;;;;;;4929985;28;136020;-66
2022/05/14 06:40:54;;;;;;;;;;;;;;;;;;4932421;28;108333;-67
2022/05/14 06:43:20;;;;;;;;;;;;;;;;;;4934839;28;136418;-65
2022/05/14 06:45:47;;;;;;;;;;;;;;;;;;4926953;28;126055;-68
2022/05/14 06:48:13;;;;;;;;;;;;;;;;;;4932391;28;121113;-68
2022/05/14 06:50:39;;;;;;;;;;;;;;;;;;4925556;28;138047;-69
2022/05/14 06:53:06;;;;;;;;;;;;;;;;;;4933827;28;138078;-68
2022/05/14 06:55:34;;;;;;;;;;;;;;;;;;4929959;28;137216;-66
2022/05/14 06:58:00;;;;;;;;;;;;;;;;;;4938478;28;136013;-67
2022/05/14 07:00:26;;;;;;;;;;;;;;;;;;4924567;28;124069;-68
2022/05/14 07:06:37;;;;;;;;;;;;;;;;;;4928487;28;136504;-68
2022/05/14 07:08:24;;;;;;;;;;;;;;;;;;4925442;28;106672;-67
2022/05/14 07:10:50;;;;;;;;;;;;;;;;;;4925161;28;137422;-67
2022/05/14 07:13:16;;;;;;;;;;;;;;;;;;4926064;28;137256;-68
2022/05/14 07:15:43;;;;;;;;;;;;;;;;;;4939502;28;123717;-68
2022/05/14 07:18:09;;;;;;;;;;;;;;;;;;4921476;28;137861;-68
2022/05/14 07:20:35;;;;;;;;;;;;;;;;;;4927788;28;117603;-69
2022/05/14 07:23:02;;;;;;;;;;;;;;;;;;4931451;28;129562;-69
2022/05/14 07:25:28;;;;;;;;;;;;;;;;;;4927698;28;107765;-69
2022/05/14 07:27:54;;;;;;;;;;;;;;;;;;4931369;28;123855;-68
2022/05/14 07:30:21;;;;;;;;;;;;;;;;;;4925320;28;135286;-68
2022/05/14 07:32:47;;;;;;;;;;;;;;;;;;4927803;28;128685;-67
2022/05/14 07:35:13;;;;;;;;;;;;;;;;;;4922882;28;124418;-67
2022/05/14 07:37:40;;;;;;;;;;;;;;;;;;4928311;28;106512;-67
2022/05/14 07:40:07;;;;;;;;;;;;;;;;;;4931431;28;107149;-66
2022/05/14 07:42:33;;;;;;;;;;;;;;;;;;4925165;28;135535;-69
2022/05/14 07:45:00;;;;;;;;;;;;;;;;;;4929834;28;117304;-67
2022/05/14 07:47:26;;;;;;;;;;;;;;;;;;4926593;28;121959;-67
2022/05/14 07:49:52;;;;;;;;;;;;;;;;;;4927086;28;113118;-67
2022/05/14 07:52:19;;;;;;;;;;;;;;;;;;4933021;28;134254;-67
2022/05/14 07:54:45;;;;;;;;;;;;;;;;;;4929100;28;118451;-67
2022/05/14 07:57:11;;;;;;;;;;;;;;;;;;4924446;28;136104;-67
2022/05/14 07:59:38;;;;;;;;;;;;;;;;;;4935950;28;106098;-67
2022/05/14 08:02:05;;;;;;;;;;;;;;;;;;4930741;28;106736;-68
2022/05/14 08:04:33;;;;;;;;;;;;;;;;;;4924590;28;106395;-67
2022/05/14 08:06:59;;;;;;;;;;;;;;;;;;4925838;28;122759;-67
2022/05/14 08:09:26;;;;;;;;;;;;;;;;;;4926731;28;123973;-68
2022/05/14 08:11:53;;;;;;;;;;;;;;;;;;4931416;28;137269;-67
2022/05/14 08:14:20;;;;;;;;;;;;;;;;;;4923644;28;106395;-69
2022/05/14 08:16:46;;;;;;;;;;;;;;;;;;4927192;28;128601;-66
2022/05/14 08:19:12;;;;;;;;;;;;;;;;;;4930950;28;125660;-67
2022/05/14 08:24:32;;;;;;;;;;;;;;;;;;4930665;28;126903;-67
2022/05/14 08:26:59;;;;;;;;;;;;;;;;;;4924798;28;116199;-67
2022/05/14 08:29:25;;;;;;;;;;;;;;;;;;4925444;28;123403;-67
2022/05/14 08:31:51;;;;;;;;;;;;;;;;;;4924094;28;139306;-67
2022/05/14 08:34:18;;;;;;;;;;;;;;;;;;4927526;28;120285;-66
2022/05/14 08:36:44;;;;;;;;;;;;;;;;;;4926248;28;132378;-66
2022/05/14 08:39:11;;;;;;;;;;;;;;;;;;4941222;28;134846;-69
2022/05/14 08:41:37;;;;;;;;;;;;;;;;;;4932009;28;122524;-67
2022/05/14 08:44:03;;;;;;;;;;;;;;;;;;4931303;28;136892;-66
2022/05/14 08:46:30;;;;;;;;;;;;;;;;;;4930848;28;106705;-67
2022/05/14 08:48:57;;;;;;;;;;;;;;;;;;4943866;28;107573;-70
2022/05/14 08:51:23;;;;;;;;;;;;;;;;;;4931200;28;137163;-68
2022/05/14 08:53:49;;;;;;;;;;;;;;;;;;4930495;28;122954;-67
2022/05/14 08:56:17;;;;;;;;;;;;;;;;;;4923610;28;116394;-67
2022/05/14 08:58:44;;;;;;;;;;;;;;;;;;4928310;28;137224;-68
2022/05/14 09:01:10;;;;;;;;;;;;;;;;;;4934494;28;122635;-67
2022/05/14 09:03:37;;;;;;;;;;;;;;;;;;4930526;28;107283;-68
2022/05/14 09:06:03;;;;;;;;;;;;;;;;;;4932146;28;107696;-68
2022/05/14 09:08:31;;;;;;;;;;;;;;;;;;4931352;28;106986;-67
2022/05/14 09:10:59;;;;;;;;;;;;;;;;;;4919946;28;136179;-67
2022/05/14 09:13:25;;;;;;;;;;;;;;;;;;4929087;28;123693;-67
2022/05/14 09:15:51;;;;;;;;;;;;;;;;;;4922493;28;136768;-67
2022/05/14 09:18:18;;;;;;;;;;;;;;;;;;4927887;28;137100;-77
2022/05/14 09:20:44;;;;;;;;;;;;;;;;;;4930868;28;118320;-67
2022/05/14 09:23:10;;;;;;;;;;;;;;;;;;4926577;28;135389;-67
2022/05/14 09:25:37;;;;;;;;;;;;;;;;;;4929688;28;126090;-67
2022/05/14 09:28:03;;;;;;;;;;;;;;;;;;4926865;28;136792;-69
2022/05/14 09:30:30;;;;;;;;;;;;;;;;;;4922589;28;130274;-67
2022/05/14 09:32:56;;;;;;;;;;;;;;;;;;4929104;28;121062;-67
2022/05/14 09:35:23;;;;;;;;;;;;;;;;;;4940315;28;135486;-67
2022/05/14 09:37:49;;;;;;;;;;;;;;;;;;4923554;28;137666;-67
2022/05/14 09:40:15;;;;;;;;;;;;;;;;;;4931234;28;122413;-67
2022/05/14 09:42:42;;;;;;;;;;;;;;;;;;4928279;28;122123;-67
2022/05/14 09:45:08;;;;;;;;;;;;;;;;;;4933713;28;137307;-67
2022/05/14 09:47:34;;;;;;;;;;;;;;;;;;4931717;28;118563;-69
2022/05/14 09:50:02;;;;;;;;;;;;;;;;;;4920987;28;137900;-67
2022/05/14 09:52:29;;;;;;;;;;;;;;;;;;4928068;28;106439;-68
2022/05/14 09:54:55;;;;;;;;;;;;;;;;;;4926849;28;128526;-68
2022/05/14 09:57:21;;;;;;;;;;;;;;;;;;4927587;28;136122;-68
2022/05/14 09:59:48;;;;;;;;;;;;;;;;;;4926170;28;122231;-68
2022/05/14 10:02:14;;;;;;;;;;;;;;;;;;4924084;28;117909;-68
2022/05/14 10:04:41;;;;;;;;;;;;;;;;;;4925899;28;108770;-67
2022/05/14 10:07:07;;;;;;;;;;;;;;;;;;4936747;28;122829;-66
2022/05/14 10:09:34;;;;;;;;;;;;;;;;;;4932491;28;135523;-66
2022/05/14 10:12:00;;;;;;;;;;;;;;;;;;4929860;28;123004;-66
2022/05/14 10:14:32;;;;;;;;;;;;;;;;;;4928606;28;135904;-66
2022/05/14 10:16:58;;;;;;;;;;;;;;;;;;4920080;28;127008;-65
2022/05/14 10:19:24;;;;;;;;;;;;;;;;;;4938133;28;123412;-67
2022/05/14 10:21:51;;;;;;;;;;;;;;;;;;4925762;28;125234;-66
2022/05/14 10:27:02;;;;;;;;;;;;;;;;;;4926132;28;124161;-66
2022/05/14 10:29:30;;;;;;;;;;;;;;;;;;4932350;28;108604;-67
2022/05/14 10:31:57;;;;;;;;;;;;;;;;;;4922129;28;107108;-67
2022/05/14 10:34:23;;;;;;;;;;;;;;;;;;4924877;28;134157;-68
2022/05/14 10:36:50;;;;;;;;;;;;;;;;;;4929792;28;107448;-69
2022/05/14 10:39:16;;;;;;;;;;;;;;;;;;4915253;28;123701;-69
2022/05/14 10:41:42;;;;;;;;;;;;;;;;;;4917928;28;137199;-69
2022/05/14 10:44:09;;;;;;;;;;;;;;;;;;4928881;28;137486;-69
2022/05/14 10:46:35;;;;;;;;;;;;;;;;;;4926749;28;113272;-68
2022/05/14 10:49:01;;;;;;;;;;;;;;;;;;4917572;28;124213;-67
2022/05/14 10:51:28;;;;;;;;;;;;;;;;;;4924058;28;132411;-67
2022/05/14 10:53:54;;;;;;;;;;;;;;;;;;4918727;28;134823;-67
2022/05/14 10:56:21;;;;;;;;;;;;;;;;;;4916937;28;137138;-67
2022/05/14 10:58:47;;;;;;;;;;;;;;;;;;4913437;28;109839;-67
2022/05/14 11:01:21;;;;;;;;;;;;;;;;;;4919579;28;108177;-67
2022/05/14 11:03:50;;;;;;;;;;;;;;;;;;4915752;28;137150;-68
2022/05/14 11:06:19;;;;;;;;;;;;;;;;;;4916097;28;107316;-67
2022/05/14 11:08:46;;;;;;;;;;;;;;;;;;4917433;28;129732;-66
2022/05/14 11:11:12;;;;;;;;;;;;;;;;;;4917834;28;138883;-69
2022/05/14 11:13:38;;;;;;;;;;;;;;;;;;4923074;28;123100;-69
2022/05/14 11:16:05;;;;;;;;;;;;;;;;;;4925800;28;137463;-67
2022/05/14 11:18:32;;;;;;;;;;;;;;;;;;4920031;28;120982;-67
2022/05/14 11:20:58;;;;;;;;;;;;;;;;;;4928851;28;136710;-69
2022/05/14 11:23:30;;;;;;;;;;;;;;;;;;4929130;28;119602;-69
2022/05/14 11:25:56;;;;;;;;;;;;;;;;;;4934827;28;107026;-68
2022/05/14 11:28:25;;;;;;;;;;;;;;;;;;4924055;28;137636;-69
2022/05/14 11:30:52;;;;;;;;;;;;;;;;;;4930938;28;136647;-68
2022/05/14 11:33:18;;;;;;;;;;;;;;;;;;4928638;28;118678;-68
2022/05/14 11:35:44;;;;;;;;;;;;;;;;;;4931310;28;138064;-69
2022/05/14 11:38:11;;;;;;;;;;;;;;;;;;4932502;28;107016;-68
2022/05/14 11:40:37;;;;;;;;;;;;;;;;;;4931032;28;137521;-69
2022/05/14 11:43:03;;;;;;;;;;;;;;;;;;4933414;28;128119;-67
2022/05/14 11:45:30;;;;;;;;;;;;;;;;;;4932074;28;107894;-68
2022/05/14 11:47:56;;;;;;;;;;;;;;;;;;4935758;28;138085;-67
2022/05/14 11:50:23;;;;;;;;;;;;;;;;;;4925927;28;139481;-69
2022/05/14 11:52:49;;;;;;;;;;;;;;;;;;4926039;28;122425;-68
2022/05/14 11:55:15;;;;;;;;;;;;;;;;;;4930445;28;127087;-68
2022/05/14 11:57:42;;;;;;;;;;;;;;;;;;4927691;28;119987;-68
2022/05/14 12:00:08;;;;;;;;;;;;;;;;;;4926243;28;135995;-68
2022/05/14 12:02:39;;;;;;;;;;;;;;;;;;4935746;28;109617;-68
2022/05/14 12:05:05;;;;;;;;;;;;;;;;;;4933263;28;119723;-68
2022/05/14 12:07:31;;;;;;;;;;;;;;;;;;4917576;28;137061;-69
2022/05/14 12:09:58;;;;;;;;;;;;;;;;;;4931145;28;138365;-70
2022/05/14 12:12:24;;;;;;;;;;;;;;;;;;4940857;28;121022;-69
2022/05/14 12:14:50;;;;;;;;;;;;;;;;;;4923357;28;129082;-68
2022/05/14 12:17:17;;;;;;;;;;;;;;;;;;4943273;28;133650;-69
2022/05/14 12:19:44;;;;;;;;;;;;;;;;;;4928247;28;135683;-69
2022/05/14 12:22:10;;;;;;;;;;;;;;;;;;4928873;28;108414;-69
2022/05/14 12:24:37;;;;;;;;;;;;;;;;;;4926041;28;123309;-70
2022/05/14 12:27:03;;;;;;;;;;;;;;;;;;4929798;28;137292;-69
2022/05/14 12:29:29;;;;;;;;;;;;;;;;;;4926303;28;107833;-69
2022/05/14 12:34:41;;;;;;;;;;;;;;;;;;4929752;28;133730;-69
2022/05/14 12:37:07;;;;;;;;;;;;;;;;;;4924767;28;136042;-69
2022/05/14 12:39:34;;;;;;;;;;;;;;;;;;4934135;28;126039;-69
2022/05/14 12:42:00;;;;;;;;;;;;;;;;;;4931816;28;116757;-69
2022/05/14 12:44:32;;;;;;;;;;;;;;;;;;4957786;28;106372;-69
2022/05/14 12:47:01;;;;;;;;;;;;;;;;;;4930160;28;108393;-70
2022/05/14 12:49:27;;;;;;;;;;;;;;;;;;4924618;28;137317;-70
2022/05/14 12:51:53;;;;;;;;;;;;;;;;;;4924753;28;122519;-70
2022/05/14 12:54:20;;;;;;;;;;;;;;;;;;4929292;28;119608;-69
2022/05/14 12:56:46;;;;;;;;;;;;;;;;;;4936668;28;108276;-69
2022/05/14 12:59:12;;;;;;;;;;;;;;;;;;4920224;28;124455;-68
2022/05/14 13:01:38;;;;;;;;;;;;;;;;;;4933153;28;134122;-69
2022/05/14 13:04:05;;;;;;;;;;;;;;;;;;4927179;28;125323;-69
2022/05/14 13:06:32;;;;;;;;;;;;;;;;;;4934181;28;137451;-68
2022/05/14 13:08:59;;;;;;;;;;;;;;;;;;4928952;28;137602;-68
2022/05/14 13:11:25;;;;;;;;;;;;;;;;;;4927709;28;121983;-69
2022/05/14 13:13:52;;;;;;;;;;;;;;;;;;4928867;28;135186;-69
2022/05/14 13:16:18;;;;;;;;;;;;;;;;;;4933251;28;130288;-68
2022/05/14 13:18:44;;;;;;;;;;;;;;;;;;4924159;28;122637;-68
2022/05/14 13:21:11;;;;;;;;;;;;;;;;;;4923422;28;107106;-69
2022/05/14 13:23:37;;;;;;;;;;;;;;;;;;4931365;28;137225;-69
2022/05/14 13:26:03;;;;;;;;;;;;;;;;;;4927505;28;108292;-68
2022/05/14 13:28:30;;;;;;;;;;;;;;;;;;4925594;28;127060;-68
2022/05/14 13:30:56;;;;;;;;;;;;;;;;;;4926554;28;106767;-68
2022/05/14 13:33:22;;;;;;;;;;;;;;;;;;4939909;28;135484;-69
2022/05/14 13:38:38;;;;;;;;;;;;;;;;;;4936013;28;122473;-68
2022/05/14 13:41:05;;;;;;;;;;;;;;;;;;4938832;28;137198;-69
2022/05/14 13:43:32;;;;;;;;;;;;;;;;;;4924198;28;118876;-70
2022/05/14 13:45:58;;;;;;;;;;;;;;;;;;4963927;28;122594;-69
2022/05/14 13:48:26;;;;;;;;;;;;;;;;;;4925102;28;138982;-69
2022/05/14 13:50:52;;;;;;;;;;;;;;;;;;4927968;28;118912;-69
2022/05/14 13:53:18;;;;;;;;;;;;;;;;;;4924923;28;138007;-69
2022/05/14 13:55:45;;;;;;;;;;;;;;;;;;4916892;28;114974;-68
2022/05/14 13:58:11;;;;;;;;;;;;;;;;;;4924483;28;107908;-68
2022/05/14 14:00:37;;;;;;;;;;;;;;;;;;4922631;28;137233;-71
2022/05/14 14:03:04;;;;;;;;;;;;;;;;;;4917303;28;138030;-70
2022/05/14 14:05:30;;;;;;;;;;;;;;;;;;4926894;28;122543;-72
2022/05/14 14:07:56;;;;;;;;;;;;;;;;;;4927327;28;136358;-71
2022/05/14 14:10:23;;;;;;;;;;;;;;;;;;4919954;28;115399;-72
2022/05/14 14:12:49;;;;;;;;;;;;;;;;;;4928790;28;135838;-70
2022/05/14 14:15:15;;;;;;;;;;;;;;;;;;4923910;28;107058;-69
2022/05/14 14:17:42;;;;;;;;;;;;;;;;;;4927716;28;125207;-69
2022/05/14 14:20:08;;;;;;;;;;;;;;;;;;4926879;28;137184;-69
2022/05/14 14:22:40;;;;;;;;;;;;;;;;;;4927252;28;108397;-70
2022/05/14 14:25:08;;;;;;;;;;;;;;;;;;4923727;28;121393;-67
2022/05/14 14:27:34;;;;;;;;;;;;;;;;;;4934130;28;127738;-72
2022/05/14 14:30:01;;;;;;;;;;;;;;;;;;4927277;28;123346;-69
2022/05/14 14:32:27;;;;;;;;;;;;;;;;;;4927640;28;127578;-68
2022/05/14 14:34:54;;;;;;;;;;;;;;;;;;4937280;28;137291;-68
2022/05/14 14:37:20;;;;;;;;;;;;;;;;;;4925698;28;122501;-68
2022/05/14 14:39:46;;;;;;;;;;;;;;;;;;4914161;28;136540;-69
2022/05/14 14:42:13;;;;;;;;;;;;;;;;;;4933119;28;136113;-68
2022/05/14 14:44:39;;;;;;;;;;;;;;;;;;4926124;28;107698;-68
2022/05/14 14:47:06;;;;;;;;;;;;;;;;;;4924452;28;135113;-69
2022/05/14 14:49:32;;;;;;;;;;;;;;;;;;4937726;28;136694;-68
2022/05/14 14:51:59;;;;;;;;;;;;;;;;;;4960135;28;107870;-68
2022/05/14 14:54:25;;;;;;;;;;;;;;;;;;4932194;28;136589;-68
2022/05/14 14:56:51;;;;;;;;;;;;;;;;;;4941963;28;107174;-68
2022/05/14 14:59:18;;;;;;;;;;;;;;;;;;4928154;28;119924;-68
2022/05/14 15:01:46;;;;;;;;;;;;;;;;;;4932095;28;136520;-68
2022/05/14 15:04:12;;;;;;;;;;;;;;;;;;4935840;28;122987;-68
2022/05/14 15:06:38;;;;;;;;;;;;;;;;;;4932330;28;124725;-68
2022/05/14 15:09:05;;;;;;;;;;;;;;;;;;4924979;28;137585;-68
2022/05/14 15:11:31;;;;;;;;;;;;;;;;;;4935184;28;122862;-68
2022/05/14 15:13:57;;;;;;;;;;;;;;;;;;4931688;28;136397;-68
2022/05/14 15:16:23;;;;;;;;;;;;;;;;;;4951371;28;122723;-69
2022/05/14 15:18:50;;;;;;;;;;;;;;;;;;4936018;28;129598;-69
2022/05/14 15:21:16;;;;;;;;;;;;;;;;;;4920207;28;139091;-69
2022/05/14 15:23:42;;;;;;;;;;;;;;;;;;4932864;28;123142;-68
2022/05/14 15:26:09;;;;;;;;;;;;;;;;;;4942380;28;137015;-70
2022/05/14 15:28:35;;;;;;;;;;;;;;;;;;4932682;28;138743;-70
2022/05/14 15:31:01;;;;;;;;;;;;;;;;;;4923998;28;107436;-70
2022/05/14 15:33:28;;;;;;;;;;;;;;;;;;4928511;28;132037;-69
2022/05/14 15:35:54;;;;;;;;;;;;;;;;;;4931718;28;118948;-70
2022/05/14 15:38:20;;;;;;;;;;;;;;;;;;4934405;28;137598;-69
2022/05/14 15:40:50;;;;;;;;;;;;;;;;;;4927596;28;128285;-71
2022/05/14 15:43:18;;;;;;;;;;;;;;;;;;4923359;28;122496;-68
2022/05/14 15:45:45;;;;;;;;;;;;;;;;;;4929798;28;108551;-68
2022/05/14 15:48:12;;;;;;;;;;;;;;;;;;4955049;28;106833;-67
2022/05/14 15:50:38;;;;;;;;;;;;;;;;;;4932684;28;123475;-71
2022/05/14 15:53:04;;;;;;;;;;;;;;;;;;4929121;28;136209;-68
2022/05/14 15:55:31;;;;;;;;;;;;;;;;;;4929467;28;138409;-69
2022/05/14 15:57:57;;;;;;;;;;;;;;;;;;4916560;28;132969;-70
2022/05/14 16:00:23;;;;;;;;;;;;;;;;;;4932153;28;137429;-69
2022/05/14 16:02:53;;;;;;;;;;;;;;;;;;4923935;28;119142;-67
2022/05/14 16:05:19;;;;;;;;;;;;;;;;;;4926960;28;137056;-67
2022/05/14 16:07:45;;;;;;;;;;;;;;;;;;4930628;28;127302;-68
2022/05/14 16:16:00;;;;;;;;;;;;;;;;;;4920494;28;127131;-68
2022/05/14 16:18:26;;;;;;;;;;;;;;;;;;4924484;28;122571;-68
2022/05/14 16:20:53;;;;;;;;;;;;;;;;;;4932807;28;138325;-71
2022/05/14 16:23:19;;;;;;;;;;;;;;;;;;4932134;28;124263;-69
2022/05/14 16:25:46;;;;;;;;;;;;;;;;;;4923959;28;135844;-68
2022/05/14 16:28:12;;;;;;;;;;;;;;;;;;4940980;28;135980;-67
2022/05/14 16:30:39;;;;;;;;;;;;;;;;;;4935603;28;123245;-68
2022/05/14 16:33:06;;;;;;;;;;;;;;;;;;4927921;28;136830;-68
2022/05/14 16:35:32;;;;;;;;;;;;;;;;;;4927425;28;131180;-69
2022/05/14 16:37:58;;;;;;;;;;;;;;;;;;4929565;28;121343;-69
2022/05/14 16:40:25;;;;;;;;;;;;;;;;;;4928611;28;122280;-70
2022/05/14 16:42:52;;;;;;;;;;;;;;;;;;4912456;28;123231;-69
2022/05/14 16:45:19;;;;;;;;;;;;;;;;;;4926731;28;134534;-69
2022/05/14 16:47:45;;;;;;;;;;;;;;;;;;4927627;28;138303;-69
2022/05/14 16:50:12;;;;;;;;;;;;;;;;;;4912258;28;116032;-69
2022/05/14 16:52:40;;;;;;;;;;;;;;;;;;4917017;28;107192;-67
2022/05/14 16:55:07;;;;;;;;;;;;;;;;;;4922328;28;137476;-68